Time;durP1;ratioP1;P1;durP2;ratioP2;P2;SDS_P1;SDS_P2;PMS_P1;PMS_P2;Temp;Humidity;BMP_temperature;BMP_pressure;BME280_temperature;BME280_humidity;BME280_pressure;Samples;Min_cycle;Max_cycle;Signal;HPM_P1;HPM_P2
2022/01/04 00:01:35;;;;;;;4.00;2.13;;;;;;;;;;5074400;28;20448;-70
2022/01/04 00:04:02;;;;;;;4.67;2.50;;;;;;;;;;5074321;28;20455;-70
2022/01/04 00:06:29;;;;;;;4.87;2.37;;;;;;;;;;5074320;28;20562;-70
2022/01/04 00:09:00;;;;;;;6.90;2.20;;;;;;;;;;5074410;28;20450;-70
2022/01/04 00:11:43;;;;;;;9.40;2.57;;;;;;;;;;5074064;28;20452;-71
2022/01/04 00:14:10;;;;;;;3.43;2.63;;;;;;;;;;5074249;28;20459;-71
2022/01/04 00:16:39;;;;;;;4.87;2.67;;;;;;;;;;5072874;28;20976;-71
2022/01/04 00:19:06;;;;;;;5.77;3.20;;;;;;;;;;5073807;28;20448;-70
2022/01/04 00:21:33;;;;;;;3.40;2.13;;;;;;;;;;5073882;28;20454;-70
2022/01/04 00:24:01;;;;;;;5.00;3.20;;;;;;;;;;5073699;28;20451;-70
2022/01/04 00:26:28;;;;;;;5.47;3.27;;;;;;;;;;5073869;28;20460;-70
2022/01/04 00:28:55;;;;;;;4.47;2.47;;;;;;;;;;5073742;28;20460;-70
2022/01/04 00:31:22;;;;;;;3.50;2.87;;;;;;;;;;5073568;28;20960;-71
2022/01/04 00:33:51;;;;;;;6.23;3.17;;;;;;;;;;5073502;28;20790;-70
2022/01/04 00:36:21;;;;;;;6.80;2.90;;;;;;;;;;5073442;28;20496;-70
2022/01/04 00:38:48;;;;;;;3.47;1.83;;;;;;;;;;5073316;28;20443;-70
2022/01/04 00:41:15;;;;;;;4.73;2.10;;;;;;;;;;5073807;28;20471;-70
2022/01/04 00:43:44;;;;;;;2.90;2.20;;;;;;;;;;5073173;28;20825;-70
2022/01/04 00:46:16;;;;;;;4.20;2.00;;;;;;;;;;5073382;28;20503;-70
2022/01/04 00:51:29;;;;;;;3.03;2.00;;;;;;;;;;5073311;28;20511;-70
2022/01/04 00:53:56;;;;;;;4.43;2.00;;;;;;;;;;5072697;28;20452;-70
2022/01/04 00:56:24;;;;;;;2.40;2.00;;;;;;;;;;5073084;28;20495;-70
2022/01/04 00:58:51;;;;;;;4.10;2.30;;;;;;;;;;5073415;28;20458;-70
2022/01/04 01:01:18;;;;;;;4.10;2.37;;;;;;;;;;5073159;28;20455;-70
2022/01/04 01:03:45;;;;;;;3.50;2.30;;;;;;;;;;5072882;28;20828;-70
2022/01/04 01:06:12;;;;;;;4.10;2.40;;;;;;;;;;5072993;28;20468;-70
2022/01/04 01:08:41;;;;;;;3.97;2.37;;;;;;;;;;5073115;28;20451;-70
2022/01/04 01:11:09;;;;;;;3.37;2.40;;;;;;;;;;5073218;28;20456;-70
2022/01/04 01:13:36;;;;;;;5.37;2.60;;;;;;;;;;5072755;28;20510;-70
2022/01/04 01:16:04;;;;;;;4.27;2.70;;;;;;;;;;5073022;28;20471;-70
2022/01/04 01:18:31;;;;;;;6.20;2.97;;;;;;;;;;5072856;28;20452;-70
2022/01/04 01:20:59;;;;;;;3.07;2.33;;;;;;;;;;5073264;28;20822;-70
2022/01/04 01:23:26;;;;;;;2.73;2.17;;;;;;;;;;5072664;28;20550;-71
2022/01/04 01:25:55;;;;;;;4.97;2.30;;;;;;;;;;5072807;28;20999;-70
2022/01/04 01:28:22;;;;;;;3.70;2.50;;;;;;;;;;5072497;28;20451;-70
2022/01/04 01:30:49;;;;;;;3.20;2.90;;;;;;;;;;5072934;28;20454;-70
2022/01/04 01:33:17;;;;;;;3.40;2.43;;;;;;;;;;5072859;28;20451;-70
2022/01/04 01:35:45;;;;;;;3.63;2.47;;;;;;;;;;5072571;28;20983;-70
2022/01/04 01:38:14;;;;;;;4.87;2.17;;;;;;;;;;5072256;28;20492;-70
2022/01/04 01:40:41;;;;;;;5.03;3.40;;;;;;;;;;5072833;28;20971;-70
2022/01/04 01:43:10;;;;;;;5.23;3.03;;;;;;;;;;5072998;28;20456;-70
2022/01/04 01:45:37;;;;;;;5.73;3.30;;;;;;;;;;5072637;28;20471;-70
2022/01/04 01:48:05;;;;;;;4.57;3.13;;;;;;;;;;5072726;28;20452;-70
2022/01/04 01:50:32;;;;;;;3.47;2.60;;;;;;;;;;5072527;28;20798;-70
2022/01/04 01:53:00;;;;;;;3.63;2.70;;;;;;;;;;5072715;28;20928;-70
2022/01/04 01:55:27;;;;;;;3.80;2.30;;;;;;;;;;5072559;28;20471;-70
2022/01/04 01:57:55;;;;;;;2.87;1.93;;;;;;;;;;5072428;28;20492;-70
2022/01/04 02:00:24;;;;;;;2.20;1.90;;;;;;;;;;5072707;28;20753;-70
2022/01/04 02:02:51;;;;;;;2.80;2.20;;;;;;;;;;5072851;28;20469;-70
2022/01/04 02:05:18;;;;;;;4.30;2.50;;;;;;;;;;5072562;28;20833;-70
2022/01/04 02:07:46;;;;;;;4.47;2.80;;;;;;;;;;5072496;28;20450;-70
2022/01/04 02:10:14;;;;;;;3.40;2.07;;;;;;;;;;5072601;28;20822;-70
2022/01/04 02:12:42;;;;;;;5.97;2.37;;;;;;;;;;5072632;28;20448;-70
2022/01/04 02:15:11;;;;;;;2.63;1.90;;;;;;;;;;5072355;28;20518;-70
2022/01/04 02:17:39;;;;;;;2.17;1.80;;;;;;;;;;5072491;28;20479;-70
2022/01/04 02:20:09;;;;;;;2.40;2.00;;;;;;;;;;5072397;28;20451;-70
2022/01/04 02:22:36;;;;;;;3.87;2.50;;;;;;;;;;5072478;28;20447;-70
2022/01/04 02:25:04;;;;;;;7.00;2.47;;;;;;;;;;5072026;28;20841;-70
2022/01/04 02:27:33;;;;;;;4.97;2.47;;;;;;;;;;5072293;28;20447;-70
2022/01/04 02:30:00;;;;;;;3.30;2.80;;;;;;;;;;5072205;28;20887;-70
2022/01/04 02:32:28;;;;;;;6.00;2.67;;;;;;;;;;5072529;28;20457;-70
2022/01/04 02:34:55;;;;;;;3.50;2.37;;;;;;;;;;5071976;28;20480;-70
2022/01/04 02:37:24;;;;;;;5.70;2.77;;;;;;;;;;5071900;28;20510;-70
2022/01/04 02:39:53;;;;;;;4.40;2.33;;;;;;;;;;5073357;28;20458;-70
2022/01/04 02:42:38;;;;;;;4.07;2.40;;;;;;;;;;5075848;28;20959;-70
2022/01/04 02:45:06;;;;;;;2.50;2.00;;;;;;;;;;5075520;28;20475;-70
2022/01/04 02:47:34;;;;;;;2.47;1.60;;;;;;;;;;5075613;28;20451;-70
2022/01/04 02:50:01;;;;;;;3.97;2.10;;;;;;;;;;5075862;28;20447;-70
2022/01/04 02:52:29;;;;;;;3.20;2.13;;;;;;;;;;5075935;28;20952;-70
2022/01/04 02:54:56;;;;;;;2.47;1.77;;;;;;;;;;5075653;28;20476;-70
2022/01/04 02:57:24;;;;;;;4.13;2.37;;;;;;;;;;5075359;28;20487;-70
2022/01/04 02:59:51;;;;;;;3.00;2.00;;;;;;;;;;5075374;28;20462;-70
2022/01/04 03:02:18;;;;;;;5.50;2.30;;;;;;;;;;5075720;28;20920;-70
2022/01/04 03:04:45;;;;;;;5.07;2.67;;;;;;;;;;5075295;28;20471;-70
2022/01/04 03:07:12;;;;;;;6.27;2.57;;;;;;;;;;5075277;28;20448;-70
2022/01/04 03:09:40;;;;;;;2.50;2.20;;;;;;;;;;5075443;28;20551;-70
2022/01/04 03:12:08;;;;;;;3.33;2.20;;;;;;;;;;5075208;28;20459;-70
2022/01/04 03:14:35;;;;;;;2.63;2.10;;;;;;;;;;5074969;28;20472;-70
2022/01/04 03:17:02;;;;;;;4.00;2.87;;;;;;;;;;5075101;28;20488;-70
2022/01/04 03:19:29;;;;;;;5.57;3.20;;;;;;;;;;5075008;28;20459;-70
2022/01/04 03:21:56;;;;;;;7.43;3.43;;;;;;;;;;5075167;28;20817;-70
2022/01/04 03:24:24;;;;;;;4.43;2.90;;;;;;;;;;5074625;28;20460;-70
2022/01/04 03:26:52;;;;;;;5.23;2.53;;;;;;;;;;5074989;28;20459;-70
2022/01/04 03:29:19;;;;;;;6.53;2.73;;;;;;;;;;5075009;28;20471;-70
2022/01/04 03:31:47;;;;;;;4.37;2.23;;;;;;;;;;5074902;28;20451;-70
2022/01/04 03:34:15;;;;;;;3.90;2.37;;;;;;;;;;5074558;28;20546;-70
2022/01/04 03:36:42;;;;;;;4.10;2.53;;;;;;;;;;5074205;28;20703;-70
2022/01/04 03:39:10;;;;;;;3.27;2.40;;;;;;;;;;5074993;28;20929;-70
2022/01/04 03:41:39;;;;;;;3.53;2.57;;;;;;;;;;5074684;28;20451;-70
2022/01/04 03:44:07;;;;;;;5.33;3.53;;;;;;;;;;5074714;28;20463;-70
2022/01/04 03:46:35;;;;;;;3.53;2.30;;;;;;;;;;5074554;28;20509;-70
2022/01/04 03:49:02;;;;;;;3.57;2.80;;;;;;;;;;5074535;28;20443;-70
2022/01/04 03:51:29;;;;;;;6.23;2.53;;;;;;;;;;5074669;28;20940;-70
2022/01/04 03:53:56;;;;;;;4.67;2.53;;;;;;;;;;5074127;28;20456;-70
2022/01/04 03:56:23;;;;;;;3.27;2.40;;;;;;;;;;5074293;28;20471;-70
2022/01/04 03:58:50;;;;;;;4.33;2.67;;;;;;;;;;5074285;28;20503;-70
2022/01/04 04:01:19;;;;;;;5.50;2.73;;;;;;;;;;5074242;28;20448;-70
2022/01/04 04:03:46;;;;;;;4.13;2.60;;;;;;;;;;5073993;28;20451;-71
2022/01/04 04:06:13;;;;;;;5.70;2.40;;;;;;;;;;5074251;28;20475;-70
2022/01/04 04:08:41;;;;;;;6.27;3.23;;;;;;;;;;5074141;28;20455;-70
2022/01/04 04:11:08;;;;;;;3.40;2.63;;;;;;;;;;5073975;28;20826;-70
2022/01/04 04:13:35;;;;;;;5.03;2.80;;;;;;;;;;5073641;28;20455;-70
2022/01/04 04:16:02;;;;;;;3.83;2.43;;;;;;;;;;5073755;28;20483;-70
2022/01/04 04:18:30;;;;;;;2.57;2.37;;;;;;;;;;5073782;28;20992;-70
2022/01/04 04:20:57;;;;;;;6.17;2.50;;;;;;;;;;5073905;28;20454;-70
2022/01/04 04:23:25;;;;;;;6.00;3.10;;;;;;;;;;5074055;28;20462;-70
2022/01/04 04:25:52;;;;;;;5.77;4.07;;;;;;;;;;5073679;28;20471;-70
2022/01/04 04:28:19;;;;;;;4.10;3.23;;;;;;;;;;5073616;28;20444;-70
2022/01/04 04:30:46;;;;;;;6.70;2.83;;;;;;;;;;5073613;28;20921;-70
2022/01/04 04:33:13;;;;;;;7.00;3.30;;;;;;;;;;5073679;28;20477;-71
2022/01/04 04:35:42;;;;;;;5.43;3.40;;;;;;;;;;5073136;28;20476;-70
2022/01/04 04:38:09;;;;;;;4.03;2.93;;;;;;;;;;5073041;28;20495;-70
2022/01/04 04:40:36;;;;;;;9.87;4.50;;;;;;;;;;5073337;28;20447;-70
2022/01/04 04:43:03;;;;;;;3.83;2.97;;;;;;;;;;5073670;28;20459;-70
2022/01/04 04:45:30;;;;;;;5.43;3.20;;;;;;;;;;5073461;28;20491;-70
2022/01/04 04:47:57;;;;;;;4.83;2.87;;;;;;;;;;5073543;28;20452;-70
2022/01/04 04:50:25;;;;;;;3.47;2.60;;;;;;;;;;5073331;28;20451;-70
2022/01/04 04:52:54;;;;;;;4.73;2.80;;;;;;;;;;5073318;28;20529;-71
2022/01/04 04:55:21;;;;;;;5.40;2.97;;;;;;;;;;5073055;28;20973;-70
2022/01/04 04:57:48;;;;;;;3.13;2.83;;;;;;;;;;5073330;28;20487;-70
2022/01/04 05:00:15;;;;;;;6.90;4.67;;;;;;;;;;5073143;28;20462;-70
2022/01/04 05:02:43;;;;;;;4.50;3.20;;;;;;;;;;5072724;28;20447;-70
2022/01/04 05:05:11;;;;;;;11.60;3.90;;;;;;;;;;5072839;28;20474;-70
2022/01/04 05:07:38;;;;;;;4.90;3.17;;;;;;;;;;5073052;28;20968;-70
2022/01/04 05:10:07;;;;;;;6.20;3.20;;;;;;;;;;5073048;28;20539;-70
2022/01/04 05:12:34;;;;;;;4.07;2.57;;;;;;;;;;5073015;28;20456;-70
2022/01/04 05:15:02;;;;;;;2.73;2.20;;;;;;;;;;5072824;28;20467;-70
2022/01/04 05:17:30;;;;;;;3.17;2.87;;;;;;;;;;5072891;28;20487;-70
2022/01/04 05:19:57;;;;;;;11.87;6.53;;;;;;;;;;5073028;28;20537;-70
2022/01/04 05:22:24;;;;;;;3.53;2.80;;;;;;;;;;5072871;28;20459;-70
2022/01/04 05:24:51;;;;;;;4.57;3.23;;;;;;;;;;5072784;28;20478;-70
2022/01/04 05:27:19;;;;;;;4.30;3.10;;;;;;;;;;5072828;28;20455;-70
2022/01/04 05:29:46;;;;;;;3.60;2.10;;;;;;;;;;5072662;28;20470;-70
2022/01/04 05:32:13;;;;;;;3.53;2.30;;;;;;;;;;5072888;28;20956;-70
2022/01/04 05:34:41;;;;;;;3.13;2.27;;;;;;;;;;5072418;28;20486;-70
2022/01/04 05:37:08;;;;;;;3.20;2.00;;;;;;;;;;5072531;28;20447;-70
2022/01/04 05:39:35;;;;;;;2.73;2.47;;;;;;;;;;5072614;28;20514;-70
2022/01/04 05:42:02;;;;;;;9.93;5.90;;;;;;;;;;5072790;28;20463;-70
2022/01/04 05:44:30;;;;;;;4.20;3.40;;;;;;;;;;5072409;28;20454;-70
2022/01/04 05:46:58;;;;;;;4.43;2.73;;;;;;;;;;5072824;28;20463;-70
2022/01/04 05:49:25;;;;;;;5.40;2.50;;;;;;;;;;5072964;28;20801;-71
2022/01/04 05:51:52;;;;;;;4.10;2.67;;;;;;;;;;5072726;28;20451;-70
2022/01/04 05:54:19;;;;;;;3.30;2.47;;;;;;;;;;5072291;28;20458;-70
2022/01/04 05:56:46;;;;;;;6.73;3.50;;;;;;;;;;5072642;28;20478;-70
2022/01/04 05:59:13;;;;;;;4.53;2.93;;;;;;;;;;5072541;28;20499;-70
2022/01/04 06:01:41;;;;;;;3.83;3.13;;;;;;;;;;5072437;28;20462;-70
2022/01/04 06:04:10;;;;;;;3.07;2.67;;;;;;;;;;5072319;28;20451;-70
2022/01/04 06:06:39;;;;;;;4.00;2.80;;;;;;;;;;5072418;28;20889;-70
2022/01/04 06:09:08;;;;;;;4.40;2.80;;;;;;;;;;5072558;28;20929;-70
2022/01/04 06:11:56;;;;;;;3.33;2.37;;;;;;;;;;5072422;28;20889;-70
2022/01/04 06:17:11;;;;;;;3.30;2.83;;;;;;;;;;5076387;28;20423;-70
2022/01/04 06:19:38;;;;;;;5.20;2.73;;;;;;;;;;5076068;28;20510;-70
2022/01/04 06:22:06;;;;;;;7.03;4.90;;;;;;;;;;5076379;28;20956;-70
2022/01/04 06:24:33;;;;;;;6.37;5.07;;;;;;;;;;5075702;28;20477;-70
2022/01/04 06:27:00;;;;;;;4.67;4.17;;;;;;;;;;5076078;28;20830;-70
2022/01/04 06:29:27;;;;;;;5.03;3.40;;;;;;;;;;5075783;28;20963;-70
2022/01/04 06:31:54;;;;;;;6.27;2.87;;;;;;;;;;5075926;28;20833;-70
2022/01/04 06:34:23;;;;;;;2.87;2.40;;;;;;;;;;5075679;28;20455;-70
2022/01/04 06:36:50;;;;;;;6.00;4.43;;;;;;;;;;5075414;28;20801;-70
2022/01/04 06:39:17;;;;;;;4.60;4.00;;;;;;;;;;5075736;28;20494;-70
2022/01/04 06:41:44;;;;;;;5.30;3.90;;;;;;;;;;5075872;28;20960;-70
2022/01/04 06:44:11;;;;;;;13.97;6.20;;;;;;;;;;5075605;28;20956;-70
2022/01/04 06:46:44;;;;;;;34.97;12.57;;;;;;;;;;5075817;28;20463;-71
2022/01/04 06:49:12;;;;;;;127.23;51.23;;;;;;;;;;5075736;28;20451;-71
2022/01/04 06:51:40;;;;;;;81.70;35.40;;;;;;;;;;5075559;28;21006;-71
2022/01/04 06:54:07;;;;;;;57.87;29.60;;;;;;;;;;5075717;28;20450;-71
2022/01/04 06:56:34;;;;;;;62.83;27.73;;;;;;;;;;5075532;28;20486;-71
2022/01/04 06:59:02;;;;;;;18.67;10.20;;;;;;;;;;5075525;28;20495;-71
2022/01/04 07:01:29;;;;;;;16.23;8.33;;;;;;;;;;5075326;28;20447;-70
2022/01/04 07:03:56;;;;;;;14.37;9.20;;;;;;;;;;5075260;28;20815;-71
2022/01/04 07:06:23;;;;;;;17.37;11.47;;;;;;;;;;5075445;28;20479;-71
2022/01/04 07:08:52;;;;;;;26.17;13.50;;;;;;;;;;5075396;28;20447;-71
2022/01/04 07:11:19;;;;;;;8.10;5.30;;;;;;;;;;5075182;28;20452;-71
2022/01/04 07:13:46;;;;;;;7.60;4.03;;;;;;;;;;5074883;28;20563;-70
2022/01/04 07:16:13;;;;;;;6.00;3.30;;;;;;;;;;5075103;28;20479;-70
2022/01/04 07:18:40;;;;;;;6.73;3.47;;;;;;;;;;5074933;28;20487;-71
2022/01/04 07:21:08;;;;;;;6.03;2.90;;;;;;;;;;5075151;28;20821;-70
2022/01/04 07:23:35;;;;;;;5.70;2.70;;;;;;;;;;5074685;28;20456;-71
2022/01/04 07:26:03;;;;;;;6.00;3.40;;;;;;;;;;5074467;28;20468;-70
2022/01/04 07:28:31;;;;;;;3.70;3.00;;;;;;;;;;5074714;28;20443;-71
2022/01/04 07:30:58;;;;;;;4.60;3.20;;;;;;;;;;5075021;28;20452;-70
2022/01/04 07:33:25;;;;;;;5.10;3.23;;;;;;;;;;5074780;28;20455;-71
2022/01/04 07:35:52;;;;;;;13.37;4.30;;;;;;;;;;5073547;28;20558;-71
2022/01/04 07:38:19;;;;;;;3.87;3.23;;;;;;;;;;5074038;28;20495;-71
2022/01/04 07:40:47;;;;;;;9.97;4.07;;;;;;;;;;5074674;28;20467;-71
2022/01/04 07:43:15;;;;;;;5.60;4.00;;;;;;;;;;5074676;28;20932;-71
2022/01/04 07:45:42;;;;;;;6.77;3.97;;;;;;;;;;5074510;28;20471;-71
2022/01/04 07:48:10;;;;;;;4.50;3.83;;;;;;;;;;5074595;28;20455;-71
2022/01/04 07:50:38;;;;;;;6.60;4.23;;;;;;;;;;5074475;28;20456;-71
2022/01/04 07:53:05;;;;;;;12.53;6.10;;;;;;;;;;5074474;28;20452;-71
2022/01/04 07:55:32;;;;;;;12.60;6.27;;;;;;;;;;5074138;28;20987;-70
2022/01/04 07:57:59;;;;;;;10.63;5.00;;;;;;;;;;5074476;28;20455;-71
2022/01/04 08:00:28;;;;;;;7.57;5.67;;;;;;;;;;5074243;28;20448;-71
2022/01/04 08:02:55;;;;;;;18.00;10.13;;;;;;;;;;5074275;28;20448;-71
2022/01/04 08:05:22;;;;;;;21.17;10.50;;;;;;;;;;5073971;28;20479;-71
2022/01/04 08:07:50;;;;;;;11.90;5.50;;;;;;;;;;5072651;28;20482;-71
2022/01/04 08:10:18;;;;;;;13.27;7.00;;;;;;;;;;5071502;28;20494;-71
2022/01/04 08:12:45;;;;;;;5.20;4.37;;;;;;;;;;5072451;28;20976;-71
2022/01/04 08:15:13;;;;;;;10.23;5.60;;;;;;;;;;5072268;28;20546;-71
2022/01/04 08:17:41;;;;;;;9.53;7.30;;;;;;;;;;5072463;28;20451;-71
2022/01/04 08:20:09;;;;;;;5.47;4.97;;;;;;;;;;5072641;28;20484;-71
2022/01/04 08:22:36;;;;;;;11.60;5.70;;;;;;;;;;5072282;28;20460;-71
2022/01/04 08:25:06;;;;;;;5.40;4.00;;;;;;;;;;5072214;28;20478;-71
2022/01/04 08:27:33;;;;;;;8.13;4.90;;;;;;;;;;5072206;28;20459;-71
2022/01/04 08:30:00;;;;;;;9.73;4.40;;;;;;;;;;5072175;28;20456;-71
2022/01/04 08:32:27;;;;;;;4.30;3.30;;;;;;;;;;5072267;28;20447;-71
2022/01/04 08:34:56;;;;;;;3.83;3.27;;;;;;;;;;5072147;28;20866;-71
2022/01/04 08:37:23;;;;;;;3.50;2.27;;;;;;;;;;5070850;28;20467;-71
2022/01/04 08:39:50;;;;;;;5.73;3.50;;;;;;;;;;5072309;28;20852;-72
2022/01/04 08:42:17;;;;;;;6.37;3.37;;;;;;;;;;5072128;28;20455;-71
2022/01/04 08:44:44;;;;;;;5.50;3.13;;;;;;;;;;5071820;28;20464;-71
2022/01/04 08:47:12;;;;;;;6.03;4.27;;;;;;;;;;5071958;28;20451;-71
2022/01/04 08:49:39;;;;;;;5.53;2.97;;;;;;;;;;5071934;28;20447;-71
2022/01/04 08:52:08;;;;;;;4.40;3.23;;;;;;;;;;5071894;28;20551;-71
2022/01/04 08:54:36;;;;;;;5.93;3.80;;;;;;;;;;5071622;28;20476;-71
2022/01/04 08:57:04;;;;;;;10.93;3.60;;;;;;;;;;5071969;28;20462;-71
2022/01/04 08:59:32;;;;;;;11.23;3.20;;;;;;;;;;5072143;28;20500;-71
2022/01/04 09:01:59;;;;;;;5.37;3.73;;;;;;;;;;5071922;28;20455;-71
2022/01/04 09:04:26;;;;;;;3.53;3.07;;;;;;;;;;5071526;28;20451;-71
2022/01/04 09:06:53;;;;;;;8.67;2.40;;;;;;;;;;5072047;28;20451;-71
2022/01/04 09:09:22;;;;;;;6.10;3.27;;;;;;;;;;5071673;28;20459;-71
2022/01/04 09:11:49;;;;;;;3.70;3.10;;;;;;;;;;5071579;28;20452;-71
2022/01/04 09:14:27;;;;;;;4.77;2.87;;;;;;;;;;5071529;28;20452;-71
2022/01/04 09:19:39;;;;;;;5.20;2.97;;;;;;;;;;5071413;28;20533;-71
2022/01/04 09:22:07;;;;;;;4.60;3.00;;;;;;;;;;5071448;28;20937;-71
2022/01/04 09:24:35;;;;;;;4.70;3.40;;;;;;;;;;5071467;28;20942;-72
2022/01/04 09:27:05;;;;;;;3.73;2.80;;;;;;;;;;5071537;28;20456;-71
2022/01/04 09:29:33;;;;;;;10.37;5.10;;;;;;;;;;5071263;28;20513;-71
2022/01/04 09:32:01;;;;;;;10.10;6.70;;;;;;;;;;5071449;28;20485;-71
2022/01/04 09:34:28;;;;;;;6.90;4.50;;;;;;;;;;5071148;28;20952;-71
2022/01/04 09:36:55;;;;;;;10.03;6.60;;;;;;;;;;5071091;28;20987;-71
2022/01/04 09:39:24;;;;;;;6.67;4.47;;;;;;;;;;5071488;28;21035;-71
2022/01/04 09:41:55;;;;;;;5.90;3.73;;;;;;;;;;5071278;28;20463;-71
2022/01/04 09:44:25;;;;;;;5.90;4.10;;;;;;;;;;5071187;28;20545;-71
2022/01/04 09:46:52;;;;;;;5.20;4.67;;;;;;;;;;5071351;28;20546;-71
2022/01/04 09:49:19;;;;;;;8.83;4.90;;;;;;;;;;5073676;28;20455;-71
2022/01/04 09:51:47;;;;;;;5.97;4.13;;;;;;;;;;5075287;28;20978;-71
2022/01/04 09:54:19;;;;;;;4.40;4.00;;;;;;;;;;5075270;28;20448;-71
2022/01/04 09:56:47;;;;;;;9.27;5.20;;;;;;;;;;5075297;28;20459;-71
2022/01/04 09:59:16;;;;;;;6.27;3.47;;;;;;;;;;5075000;28;20491;-71
2022/01/04 10:01:45;;;;;;;10.47;6.50;;;;;;;;;;5075433;28;20505;-70
2022/01/04 10:04:13;;;;;;;9.57;5.57;;;;;;;;;;5075356;28;20458;-71
2022/01/04 10:06:41;;;;;;;8.00;6.50;;;;;;;;;;5074755;28;20521;-71
2022/01/04 10:09:11;;;;;;;8.50;5.47;;;;;;;;;;5075151;28;20452;-70
2022/01/04 10:11:39;;;;;;;13.70;8.00;;;;;;;;;;5075005;28;20467;-70
2022/01/04 10:14:21;;;;;;;8.73;6.87;;;;;;;;;;5074573;28;20455;-71
2022/01/04 10:16:52;;;;;;;8.50;6.90;;;;;;;;;;5074625;28;20448;-70
2022/01/04 10:19:27;;;;;;;8.93;6.73;;;;;;;;;;5074699;28;20517;-70
2022/01/04 10:22:10;;;;;;;6.60;4.93;;;;;;;;;;5074729;28;20455;-71
2022/01/04 10:24:37;;;;;;;11.40;4.83;;;;;;;;;;5074013;28;20479;-71
2022/01/04 10:27:22;;;;;;;5.37;3.90;;;;;;;;;;5075061;28;20458;-71
2022/01/04 10:29:49;;;;;;;9.10;5.13;;;;;;;;;;5074598;28;20462;-70
2022/01/04 10:32:17;;;;;;;7.87;5.40;;;;;;;;;;5074780;28;20451;-71
2022/01/04 10:34:48;;;;;;;5.30;4.47;;;;;;;;;;5074304;28;20483;-70
2022/01/04 10:37:30;;;;;;;13.40;4.17;;;;;;;;;;5074053;28;20448;-71
2022/01/04 10:40:04;;;;;;;6.17;4.30;;;;;;;;;;5074386;28;20487;-70
2022/01/04 10:42:31;;;;;;;9.43;4.60;;;;;;;;;;5074530;28;20457;-70
2022/01/04 10:44:58;;;;;;;6.60;5.43;;;;;;;;;;5074053;28;20475;-70
2022/01/04 10:47:30;;;;;;;12.63;6.17;;;;;;;;;;5074483;28;20454;-70
2022/01/04 10:49:58;;;;;;;7.30;4.50;;;;;;;;;;5074625;28;20452;-70
2022/01/04 10:52:32;;;;;;;6.10;3.90;;;;;;;;;;5073974;28;20462;-70
2022/01/04 10:55:13;;;;;;;6.10;4.60;;;;;;;;;;5074088;28;20466;-71
2022/01/04 10:57:40;;;;;;;4.73;2.87;;;;;;;;;;5074078;28;20834;-71
2022/01/04 11:00:14;;;;;;;5.63;4.43;;;;;;;;;;5074000;28;21014;-70
2022/01/04 11:02:42;;;;;;;8.67;5.23;;;;;;;;;;5075254;28;20467;-70
2022/01/04 11:05:13;;;;;;;3.90;3.23;;;;;;;;;;5075128;28;20467;-70
2022/01/04 11:07:55;;;;;;;6.90;4.40;;;;;;;;;;5075636;28;20521;-70
2022/01/04 11:10:22;;;;;;;4.47;3.30;;;;;;;;;;5075311;28;20467;-70
2022/01/04 11:12:49;;;;;;;4.73;4.10;;;;;;;;;;5075224;28;20454;-70
2022/01/04 11:15:16;;;;;;;7.37;4.47;;;;;;;;;;5074766;28;20475;-71
2022/01/04 11:17:45;;;;;;;7.37;5.07;;;;;;;;;;5075498;28;20969;-71
2022/01/04 11:20:13;;;;;;;8.40;3.43;;;;;;;;;;5075049;28;20487;-71
2022/01/04 11:22:40;;;;;;;8.57;5.20;;;;;;;;;;5074884;28;20459;-71
2022/01/04 11:25:08;;;;;;;12.30;7.20;;;;;;;;;;5074723;28;20471;-71
2022/01/04 11:27:36;;;;;;;19.40;9.10;;;;;;;;;;5075056;28;20466;-71
2022/01/04 11:30:05;;;;;;;8.50;6.40;;;;;;;;;;5074859;28;20464;-70
2022/01/04 11:32:32;;;;;;;9.67;7.03;;;;;;;;;;5074906;28;20448;-71
2022/01/04 11:35:05;;;;;;;6.40;4.83;;;;;;;;;;5074784;28;20460;-71
2022/01/04 11:37:32;;;;;;;11.13;4.20;;;;;;;;;;5074386;28;20877;-71
2022/01/04 11:40:00;;;;;;;9.00;6.70;;;;;;;;;;5074770;28;20483;-71
2022/01/04 11:42:38;;;;;;;19.63;6.90;;;;;;;;;;5074717;28;20460;-71
2022/01/04 11:45:07;;;;;;;7.37;4.87;;;;;;;;;;5074634;28;20497;-71
2022/01/04 11:47:37;;;;;;;13.57;9.30;;;;;;;;;;5074362;28;20551;-70
2022/01/04 11:50:07;;;;;;;14.57;11.90;;;;;;;;;;5072429;28;20864;-71
2022/01/04 11:52:38;;;;;;;10.47;6.47;;;;;;;;;;5073173;28;20451;-71
2022/01/04 11:55:16;;;;;;;8.80;5.27;;;;;;;;;;5072844;28;20488;-71
2022/01/04 11:57:43;;;;;;;5.23;4.13;;;;;;;;;;5073077;28;20936;-70
2022/01/04 12:00:10;;;;;;;5.20;3.97;;;;;;;;;;5073003;28;20486;-71
2022/01/04 12:02:39;;;;;;;11.43;6.87;;;;;;;;;;5073053;28;20896;-70
2022/01/04 12:05:13;;;;;;;8.70;4.80;;;;;;;;;;5072073;28;20476;-71
2022/01/04 12:07:45;;;;;;;6.63;3.80;;;;;;;;;;5072676;28;20821;-72
2022/01/04 12:10:31;;;;;;;7.20;4.10;;;;;;;;;;5072686;28;20474;-71
2022/01/04 12:13:00;;;;;;;6.13;3.60;;;;;;;;;;5071699;28;20955;-71
2022/01/04 12:15:45;;;;;;;5.27;3.00;;;;;;;;;;5072360;28;20479;-71
2022/01/04 12:18:35;;;;;;;9.73;5.30;;;;;;;;;;5072919;28;20451;-71
2022/01/04 12:21:04;;;;;;;9.03;5.73;;;;;;;;;;5072120;28;20953;-71
2022/01/04 12:23:48;;;;;;;5.90;4.50;;;;;;;;;;5072639;28;20816;-71
2022/01/04 12:26:21;;;;;;;4.60;3.27;;;;;;;;;;5072402;28;21032;-71
2022/01/04 12:29:04;;;;;;;4.10;2.70;;;;;;;;;;5072356;28;20471;-71
2022/01/04 12:31:32;;;;;;;3.60;2.37;;;;;;;;;;5072012;28;20451;-71
2022/01/04 12:34:00;;;;;;;9.43;2.97;;;;;;;;;;5072059;28;20513;-71
2022/01/04 12:36:29;;;;;;;7.70;2.90;;;;;;;;;;5071860;28;20471;-71
2022/01/04 12:38:57;;;;;;;3.73;2.97;;;;;;;;;;5072259;28;20490;-71
2022/01/04 12:41:25;;;;;;;3.27;2.97;;;;;;;;;;5071886;28;20483;-71
2022/01/04 12:43:52;;;;;;;7.33;4.10;;;;;;;;;;5072134;28;20456;-71
2022/01/04 12:46:26;;;;;;;4.60;3.43;;;;;;;;;;5072166;28;20467;-71
2022/01/04 12:48:56;;;;;;;7.60;5.70;;;;;;;;;;5071990;28;20455;-71
2022/01/04 12:51:24;;;;;;;4.27;3.67;;;;;;;;;;5071949;28;20459;-71
2022/01/04 12:53:52;;;;;;;4.80;3.30;;;;;;;;;;5072044;28;20505;-71
2022/01/04 12:56:19;;;;;;;8.10;4.53;;;;;;;;;;5071578;28;20855;-71
2022/01/04 12:58:46;;;;;;;7.10;3.63;;;;;;;;;;5071635;28;20451;-71
2022/01/04 13:01:14;;;;;;;6.93;3.60;;;;;;;;;;5071913;28;20488;-71
2022/01/04 13:03:41;;;;;;;7.97;3.30;;;;;;;;;;5071343;28;20462;-71
2022/01/04 13:06:09;;;;;;;6.63;3.80;;;;;;;;;;5071746;28;20472;-71
2022/01/04 13:08:36;;;;;;;7.90;3.90;;;;;;;;;;5071588;28;20828;-71
2022/01/04 13:11:05;;;;;;;4.57;4.17;;;;;;;;;;5071505;28;21001;-71
2022/01/04 13:13:33;;;;;;;6.80;4.20;;;;;;;;;;5071398;28;20447;-71
2022/01/04 13:16:15;;;;;;;6.90;5.30;;;;;;;;;;5071548;28;20471;-71
2022/01/04 13:18:42;;;;;;;5.63;3.90;;;;;;;;;;5070876;28;20462;-71
2022/01/04 13:21:09;;;;;;;6.37;3.80;;;;;;;;;;5071441;28;20487;-70
2022/01/04 13:23:38;;;;;;;9.27;5.50;;;;;;;;;;5071009;28;20501;-71
2022/01/04 13:26:08;;;;;;;7.63;3.80;;;;;;;;;;5071297;28;20528;-71
2022/01/04 13:28:36;;;;;;;6.23;5.10;;;;;;;;;;5071297;28;20886;-71
2022/01/04 13:31:03;;;;;;;7.60;4.63;;;;;;;;;;5070906;28;20679;-71
2022/01/04 13:33:32;;;;;;;3.63;2.97;;;;;;;;;;5071456;28;20467;-71
2022/01/04 13:36:00;;;;;;;4.30;2.93;;;;;;;;;;5071385;28;20888;-70
2022/01/04 13:38:28;;;;;;;6.27;3.70;;;;;;;;;;5070849;28;20471;-71
2022/01/04 13:40:57;;;;;;;5.87;3.27;;;;;;;;;;5071452;28;20490;-71
2022/01/04 13:43:29;;;;;;;4.87;4.30;;;;;;;;;;5071229;28;20945;-71
2022/01/04 13:45:57;;;;;;;6.33;5.20;;;;;;;;;;5071613;28;20468;-71
2022/01/04 13:48:25;;;;;;;10.20;4.70;;;;;;;;;;5069211;28;20451;-71
2022/01/04 13:50:52;;;;;;;5.73;3.80;;;;;;;;;;5071387;28;20459;-70
2022/01/04 13:53:20;;;;;;;8.80;4.20;;;;;;;;;;5071129;28;20467;-70
2022/01/04 13:55:52;;;;;;;5.53;5.00;;;;;;;;;;5070459;28;20868;-70
2022/01/04 13:58:37;;;;;;;4.63;3.47;;;;;;;;;;5070867;28;20454;-70
2022/01/04 14:01:11;;;;;;;4.60;3.30;;;;;;;;;;5071161;28;20484;-71
2022/01/04 14:03:40;;;;;;;6.23;4.00;;;;;;;;;;5070452;28;20458;-71
2022/01/04 14:06:07;;;;;;;6.33;3.57;;;;;;;;;;5070878;28;20525;-70
2022/01/04 14:08:49;;;;;;;6.10;3.30;;;;;;;;;;5071063;28;20459;-71
2022/01/04 14:11:23;;;;;;;4.73;3.80;;;;;;;;;;5070832;28;20448;-70
2022/01/04 14:13:51;;;;;;;5.07;4.50;;;;;;;;;;5071009;28;20568;-71
2022/01/04 14:16:19;;;;;;;4.67;3.30;;;;;;;;;;5070859;28;20846;-70
2022/01/04 14:19:02;;;;;;;12.27;8.30;;;;;;;;;;5070828;28;20452;-70
2022/01/04 14:21:30;;;;;;;8.97;4.73;;;;;;;;;;5070853;28;20560;-71
2022/01/04 14:23:58;;;;;;;7.90;5.13;;;;;;;;;;5070804;28;20928;-71
2022/01/04 14:26:25;;;;;;;5.97;4.57;;;;;;;;;;5070577;28;20478;-71
2022/01/04 14:28:53;;;;;;;4.10;2.70;;;;;;;;;;5070726;28;20469;-71
2022/01/04 14:31:21;;;;;;;5.90;3.20;;;;;;;;;;5070979;28;20450;-71
2022/01/04 14:33:48;;;;;;;5.77;3.80;;;;;;;;;;5070517;28;20974;-70
2022/01/04 14:36:15;;;;;;;4.33;2.83;;;;;;;;;;5071801;28;20475;-70
2022/01/04 14:38:43;;;;;;;5.10;2.53;;;;;;;;;;5074452;28;20463;-70
2022/01/04 14:41:10;;;;;;;4.73;3.63;;;;;;;;;;5074246;28;20995;-71
2022/01/04 14:43:37;;;;;;;7.67;4.80;;;;;;;;;;5073918;28;20456;-71
2022/01/04 14:46:05;;;;;;;9.20;5.63;;;;;;;;;;5074368;28;20475;-71
2022/01/04 14:48:33;;;;;;;20.73;12.33;;;;;;;;;;5073929;28;20458;-71
2022/01/04 14:51:00;;;;;;;9.60;5.20;;;;;;;;;;5074226;28;20447;-71
2022/01/04 14:53:27;;;;;;;6.97;5.00;;;;;;;;;;5073877;28;20554;-71
2022/01/04 14:55:54;;;;;;;7.43;5.00;;;;;;;;;;5074041;28;20467;-71
2022/01/04 14:58:21;;;;;;;8.20;6.00;;;;;;;;;;5072933;28;20472;-71